sensor_id;sensor_type;location;lat;lon;timestamp;P1;durP1;ratioP1;P2;durP2;ratioP2
76727;SDS011;65652;53.132;18.026;2023-07-16T05:05:09;6.60;;;4.30;;
76727;SDS011;65652;53.132;18.026;2023-07-16T05:07:35;8.20;;;5.00;;
76727;SDS011;65652;53.132;18.026;2023-07-16T05:10:02;7.50;;;4.70;;
76727;SDS011;65652;53.132;18.026;2023-07-16T05:12:30;7.90;;;4.60;;
76727;SDS011;65652;53.132;18.026;2023-07-16T05:14:56;10.10;;;4.80;;
76727;SDS011;65652;53.132;18.026;2023-07-16T05:17:23;9.40;;;4.20;;
76727;SDS011;65652;53.132;18.026;2023-07-16T05:19:49;7.30;;;4.40;;
76727;SDS011;65652;53.132;18.026;2023-07-16T05:22:16;9.50;;;5.00;;
76727;SDS011;65652;53.132;18.026;2023-07-16T05:24:42;8.30;;;4.70;;
76727;SDS011;65652;53.132;18.026;2023-07-16T05:27:08;9.30;;;4.80;;
76727;SDS011;65652;53.132;18.026;2023-07-16T05:29:34;7.40;;;4.40;;
76727;SDS011;65652;53.132;18.026;2023-07-16T05:32:00;7.20;;;4.40;;
76727;SDS011;65652;53.132;18.026;2023-07-16T05:34:26;7.30;;;4.50;;
76727;SDS011;65652;53.132;18.026;2023-07-16T05:36:53;10.80;;;4.40;;
76727;SDS011;65652;53.132;18.026;2023-07-16T05:41:47;7.50;;;4.60;;
76727;SDS011;65652;53.132;18.026;2023-07-16T05:44:14;8.70;;;5.10;;
76727;SDS011;65652;53.132;18.026;2023-07-16T05:46:40;7.20;;;4.70;;
76727;SDS011;65652;53.132;18.026;2023-07-16T05:49:07;8.10;;;4.40;;
76727;SDS011;65652;53.132;18.026;2023-07-16T05:51:33;7.50;;;4.30;;
76727;SDS011;65652;53.132;18.026;2023-07-16T05:53:59;6.20;;;4.30;;
76727;SDS011;65652;53.132;18.026;2023-07-16T05:56:25;8.40;;;4.20;;
76727;SDS011;65652;53.132;18.026;2023-07-16T05:58:52;8.70;;;4.40;;
76727;SDS011;65652;53.132;18.026;2023-07-16T06:01:18;7.70;;;4.60;;
76727;SDS011;65652;53.132;18.026;2023-07-16T06:03:44;6.90;;;4.40;;
76727;SDS011;65652;53.132;18.026;2023-07-16T06:06:10;7.50;;;3.70;;
76727;SDS011;65652;53.132;18.026;2023-07-16T06:08:37;7.50;;;4.20;;
76727;SDS011;65652;53.132;18.026;2023-07-16T06:11:03;6.80;;;3.80;;
76727;SDS011;65652;53.132;18.026;2023-07-16T06:13:29;6.80;;;4.40;;
76727;SDS011;65652;53.132;18.026;2023-07-16T06:15:56;6.30;;;4.30;;
76727;SDS011;65652;53.132;18.026;2023-07-16T06:18:22;7.50;;;4.50;;
76727;SDS011;65652;53.132;18.026;2023-07-16T06:20:48;6.50;;;3.80;;
76727;SDS011;65652;53.132;18.026;2023-07-16T06:23:16;6.30;;;4.10;;
76727;SDS011;65652;53.132;18.026;2023-07-16T06:25:42;7.80;;;4.40;;
76727;SDS011;65652;53.132;18.026;2023-07-16T06:28:14;7.10;;;4.10;;
76727;SDS011;65652;53.132;18.026;2023-07-16T06:30:41;6.50;;;4.20;;
76727;SDS011;65652;53.132;18.026;2023-07-16T06:33:07;5.50;;;3.60;;
76727;SDS011;65652;53.132;18.026;2023-07-16T06:35:33;5.90;;;3.60;;
76727;SDS011;65652;53.132;18.026;2023-07-16T06:37:59;7.60;;;3.50;;
76727;SDS011;65652;53.132;18.026;2023-07-16T06:40:26;6.10;;;3.60;;
76727;SDS011;65652;53.132;18.026;2023-07-16T06:42:52;6.30;;;3.70;;
76727;SDS011;65652;53.132;18.026;2023-07-16T06:45:19;6.90;;;3.30;;
76727;SDS011;65652;53.132;18.026;2023-07-16T06:47:45;7.90;;;3.90;;
76727;SDS011;65652;53.132;18.026;2023-07-16T06:50:12;6.30;;;3.70;;
76727;SDS011;65652;53.132;18.026;2023-07-16T06:52:38;7.10;;;3.50;;
76727;SDS011;65652;53.132;18.026;2023-07-16T06:55:04;5.90;;;3.70;;
76727;SDS011;65652;53.132;18.026;2023-07-16T06:57:31;6.10;;;3.20;;
76727;SDS011;65652;53.132;18.026;2023-07-16T06:59:57;6.90;;;3.20;;
76727;SDS011;65652;53.132;18.026;2023-07-16T07:02:23;6.30;;;3.80;;
76727;SDS011;65652;53.132;18.026;2023-07-16T07:04:50;5.70;;;2.70;;
76727;SDS011;65652;53.132;18.026;2023-07-16T07:09:46;7.60;;;3.10;;
76727;SDS011;65652;53.132;18.026;2023-07-16T07:12:13;6.20;;;2.80;;
76727;SDS011;65652;53.132;18.026;2023-07-16T07:14:39;7.10;;;3.10;;
76727;SDS011;65652;53.132;18.026;2023-07-16T07:17:05;4.90;;;2.70;;
76727;SDS011;65652;53.132;18.026;2023-07-16T07:19:31;9.10;;;2.80;;
76727;SDS011;65652;53.132;18.026;2023-07-16T07:21:58;5.30;;;2.70;;
76727;SDS011;65652;53.132;18.026;2023-07-16T07:24:24;4.90;;;2.30;;
76727;SDS011;65652;53.132;18.026;2023-07-16T07:26:50;5.10;;;2.30;;
76727;SDS011;65652;53.132;18.026;2023-07-16T07:29:16;4.90;;;2.40;;
76727;SDS011;65652;53.132;18.026;2023-07-16T07:31:42;4.60;;;2.30;;
76727;SDS011;65652;53.132;18.026;2023-07-16T07:34:08;4.90;;;2.40;;
76727;SDS011;65652;53.132;18.026;2023-07-16T07:36:35;5.30;;;2.20;;
76727;SDS011;65652;53.132;18.026;2023-07-16T07:39:01;4.20;;;2.40;;
76727;SDS011;65652;53.132;18.026;2023-07-16T07:41:27;5.50;;;2.40;;
76727;SDS011;65652;53.132;18.026;2023-07-16T07:43:53;5.40;;;2.50;;
76727;SDS011;65652;53.132;18.026;2023-07-16T07:46:19;5.80;;;2.50;;
76727;SDS011;65652;53.132;18.026;2023-07-16T07:48:45;5.60;;;2.70;;
76727;SDS011;65652;53.132;18.026;2023-07-16T07:51:12;5.70;;;2.40;;
76727;SDS011;65652;53.132;18.026;2023-07-16T07:53:38;4.70;;;2.30;;
76727;SDS011;65652;53.132;18.026;2023-07-16T07:56:04;5.10;;;2.50;;
76727;SDS011;65652;53.132;18.026;2023-07-16T07:58:31;5.30;;;2.50;;
76727;SDS011;65652;53.132;18.026;2023-07-16T08:01:02;6.50;;;2.30;;
76727;SDS011;65652;53.132;18.026;2023-07-16T08:03:32;4.70;;;1.90;;
76727;SDS011;65652;53.132;18.026;2023-07-16T08:05:59;6.50;;;2.30;;
76727;SDS011;65652;53.132;18.026;2023-07-16T08:08:25;5.10;;;2.00;;
76727;SDS011;65652;53.132;18.026;2023-07-16T08:10:52;3.70;;;1.50;;
76727;SDS011;65652;53.132;18.026;2023-07-16T08:13:20;5.70;;;1.80;;
76727;SDS011;65652;53.132;18.026;2023-07-16T08:15:46;4.60;;;1.40;;
76727;SDS011;65652;53.132;18.026;2023-07-16T08:18:16;4.30;;;1.70;;
76727;SDS011;65652;53.132;18.026;2023-07-16T08:20:42;3.30;;;1.50;;
76727;SDS011;65652;53.132;18.026;2023-07-16T08:23:10;4.10;;;1.50;;
76727;SDS011;65652;53.132;18.026;2023-07-16T08:25:36;3.60;;;1.50;;
76727;SDS011;65652;53.132;18.026;2023-07-16T08:28:02;3.50;;;1.30;;
76727;SDS011;65652;53.132;18.026;2023-07-16T08:30:29;3.80;;;1.50;;
76727;SDS011;65652;53.132;18.026;2023-07-16T08:32:55;3.10;;;1.10;;
76727;SDS011;65652;53.132;18.026;2023-07-16T08:35:21;3.20;;;1.30;;
76727;SDS011;65652;53.132;18.026;2023-07-16T08:37:48;3.90;;;1.50;;
76727;SDS011;65652;53.132;18.026;2023-07-16T08:40:14;3.50;;;1.40;;
76727;SDS011;65652;53.132;18.026;2023-07-16T08:42:40;4.00;;;1.40;;
76727;SDS011;65652;53.132;18.026;2023-07-16T08:45:10;3.60;;;1.50;;
76727;SDS011;65652;53.132;18.026;2023-07-16T08:47:37;3.40;;;1.30;;
76727;SDS011;65652;53.132;18.026;2023-07-16T08:50:03;3.40;;;1.30;;
76727;SDS011;65652;53.132;18.026;2023-07-16T08:52:30;5.40;;;1.20;;
76727;SDS011;65652;53.132;18.026;2023-07-16T08:54:56;3.30;;;1.30;;
76727;SDS011;65652;53.132;18.026;2023-07-16T08:57:23;3.10;;;1.20;;
76727;SDS011;65652;53.132;18.026;2023-07-16T08:59:50;3.50;;;1.50;;
76727;SDS011;65652;53.132;18.026;2023-07-16T09:02:17;3.00;;;1.10;;
76727;SDS011;65652;53.132;18.026;2023-07-16T09:04:48;4.80;;;1.40;;
76727;SDS011;65652;53.132;18.026;2023-07-16T09:07:15;3.40;;;1.20;;
76727;SDS011;65652;53.132;18.026;2023-07-16T09:09:41;3.50;;;1.30;;
76727;SDS011;65652;53.132;18.026;2023-07-16T09:12:11;3.60;;;1.60;;
76727;SDS011;65652;53.132;18.026;2023-07-16T09:14:40;3.80;;;1.40;;
76727;SDS011;65652;53.132;18.026;2023-07-16T09:17:07;4.30;;;1.50;;
76727;SDS011;65652;53.132;18.026;2023-07-16T09:19:33;3.50;;;1.50;;
76727;SDS011;65652;53.132;18.026;2023-07-16T09:21:59;5.90;;;1.50;;
76727;SDS011;65652;53.132;18.026;2023-07-16T09:24:26;4.70;;;1.50;;
76727;SDS011;65652;53.132;18.026;2023-07-16T09:26:52;3.20;;;1.40;;
76727;SDS011;65652;53.132;18.026;2023-07-16T09:29:20;4.20;;;1.40;;
76727;SDS011;65652;53.132;18.026;2023-07-16T09:31:59;3.60;;;1.50;;
76727;SDS011;65652;53.132;18.026;2023-07-16T09:34:28;4.40;;;1.60;;
76727;SDS011;65652;53.132;18.026;2023-07-16T09:36:56;2.90;;;1.10;;
76727;SDS011;65652;53.132;18.026;2023-07-16T09:39:26;4.10;;;1.10;;
76727;SDS011;65652;53.132;18.026;2023-07-16T09:41:53;4.60;;;1.10;;
76727;SDS011;65652;53.132;18.026;2023-07-16T09:44:22;3.60;;;1.30;;
76727;SDS011;65652;53.132;18.026;2023-07-16T09:46:48;4.10;;;1.30;;
76727;SDS011;65652;53.132;18.026;2023-07-16T09:49:14;4.80;;;1.40;;
76727;SDS011;65652;53.132;18.026;2023-07-16T09:51:42;4.10;;;1.40;;
76727;SDS011;65652;53.132;18.026;2023-07-16T09:54:09;3.10;;;1.20;;
76727;SDS011;65652;53.132;18.026;2023-07-16T09:56:39;3.80;;;1.50;;
76727;SDS011;65652;53.132;18.026;2023-07-16T09:59:11;4.90;;;1.50;;
76727;SDS011;65652;53.132;18.026;2023-07-16T10:01:40;3.20;;;1.30;;
76727;SDS011;65652;53.132;18.026;2023-07-16T10:04:16;4.30;;;1.60;;
76727;SDS011;65652;53.132;18.026;2023-07-16T10:06:53;4.10;;;1.80;;
76727;SDS011;65652;53.132;18.026;2023-07-16T10:17:16;7.30;;;1.70;;
76727;SDS011;65652;53.132;18.026;2023-07-16T10:22:58;3.60;;;1.70;;
76727;SDS011;65652;53.132;18.026;2023-07-16T10:27:43;5.00;;;1.50;;
76727;SDS011;65652;53.132;18.026;2023-07-16T10:30:14;4.10;;;1.40;;
76727;SDS011;65652;53.132;18.026;2023-07-16T10:32:41;5.10;;;1.80;;
76727;SDS011;65652;53.132;18.026;2023-07-16T10:35:08;3.40;;;1.50;;
76727;SDS011;65652;53.132;18.026;2023-07-16T10:37:35;4.60;;;2.00;;
76727;SDS011;65652;53.132;18.026;2023-07-16T10:42:29;4.60;;;1.80;;
76727;SDS011;65652;53.132;18.026;2023-07-16T10:44:59;5.30;;;1.90;;
76727;SDS011;65652;53.132;18.026;2023-07-16T10:47:30;4.30;;;2.10;;
76727;SDS011;65652;53.132;18.026;2023-07-16T10:49:58;5.70;;;1.70;;
76727;SDS011;65652;53.132;18.026;2023-07-16T10:52:25;4.40;;;2.00;;
76727;SDS011;65652;53.132;18.026;2023-07-16T10:54:52;4.70;;;1.90;;
76727;SDS011;65652;53.132;18.026;2023-07-16T10:57:24;4.20;;;2.00;;
76727;SDS011;65652;53.132;18.026;2023-07-16T10:59:51;3.60;;;1.90;;
76727;SDS011;65652;53.132;18.026;2023-07-16T11:02:18;4.30;;;1.90;;
76727;SDS011;65652;53.132;18.026;2023-07-16T11:04:45;3.70;;;1.70;;
76727;SDS011;65652;53.132;18.026;2023-07-16T11:07:13;6.20;;;2.30;;
76727;SDS011;65652;53.132;18.026;2023-07-16T11:09:44;4.50;;;2.10;;
76727;SDS011;65652;53.132;18.026;2023-07-16T11:12:12;4.70;;;2.10;;
76727;SDS011;65652;53.132;18.026;2023-07-16T11:14:43;4.60;;;2.50;;
76727;SDS011;65652;53.132;18.026;2023-07-16T11:17:11;3.90;;;1.70;;
76727;SDS011;65652;53.132;18.026;2023-07-16T11:19:38;5.40;;;2.10;;
76727;SDS011;65652;53.132;18.026;2023-07-16T11:22:06;4.60;;;2.30;;
76727;SDS011;65652;53.132;18.026;2023-07-16T11:24:40;4.30;;;2.20;;
76727;SDS011;65652;53.132;18.026;2023-07-16T11:27:15;4.50;;;2.30;;
76727;SDS011;65652;53.132;18.026;2023-07-16T11:29:49;4.90;;;2.40;;
76727;SDS011;65652;53.132;18.026;2023-07-16T11:32:30;4.40;;;1.90;;
76727;SDS011;65652;53.132;18.026;2023-07-16T11:34:59;4.40;;;1.70;;
76727;SDS011;65652;53.132;18.026;2023-07-16T11:37:26;3.60;;;1.90;;
76727;SDS011;65652;53.132;18.026;2023-07-16T11:40:01;4.80;;;1.70;;
76727;SDS011;65652;53.132;18.026;2023-07-16T11:42:30;4.10;;;2.10;;
76727;SDS011;65652;53.132;18.026;2023-07-16T11:44:58;6.50;;;1.70;;
76727;SDS011;65652;53.132;18.026;2023-07-16T11:47:26;4.00;;;1.60;;
76727;SDS011;65652;53.132;18.026;2023-07-16T11:49:53;4.20;;;2.10;;
76727;SDS011;65652;53.132;18.026;2023-07-16T11:52:20;4.30;;;1.80;;
76727;SDS011;65652;53.132;18.026;2023-07-16T11:54:48;4.20;;;1.80;;
76727;SDS011;65652;53.132;18.026;2023-07-16T11:57:15;5.30;;;1.70;;
76727;SDS011;65652;53.132;18.026;2023-07-16T11:59:42;6.90;;;2.20;;
76727;SDS011;65652;53.132;18.026;2023-07-16T12:02:08;3.90;;;2.00;;
76727;SDS011;65652;53.132;18.026;2023-07-16T12:04:35;4.40;;;2.00;;
76727;SDS011;65652;53.132;18.026;2023-07-16T12:07:01;3.90;;;1.80;;
76727;SDS011;65652;53.132;18.026;2023-07-16T12:09:27;4.50;;;1.60;;
76727;SDS011;65652;53.132;18.026;2023-07-16T12:11:54;4.00;;;1.90;;
76727;SDS011;65652;53.132;18.026;2023-07-16T12:14:20;5.20;;;2.20;;
76727;SDS011;65652;53.132;18.026;2023-07-16T12:16:46;3.60;;;1.80;;
76727;SDS011;65652;53.132;18.026;2023-07-16T12:19:12;3.90;;;1.80;;
76727;SDS011;65652;53.132;18.026;2023-07-16T12:21:39;3.40;;;1.70;;
76727;SDS011;65652;53.132;18.026;2023-07-16T12:24:05;3.70;;;1.80;;
76727;SDS011;65652;53.132;18.026;2023-07-16T12:26:31;4.00;;;2.00;;
76727;SDS011;65652;53.132;18.026;2023-07-16T12:28:57;4.40;;;1.90;;
76727;SDS011;65652;53.132;18.026;2023-07-16T12:31:24;3.60;;;1.90;;
76727;SDS011;65652;53.132;18.026;2023-07-16T12:33:50;4.90;;;2.20;;
76727;SDS011;65652;53.132;18.026;2023-07-16T12:36:16;4.50;;;1.90;;
76727;SDS011;65652;53.132;18.026;2023-07-16T12:38:42;3.70;;;1.80;;
76727;SDS011;65652;53.132;18.026;2023-07-16T12:41:08;3.60;;;1.50;;
76727;SDS011;65652;53.132;18.026;2023-07-16T12:43:35;3.80;;;2.10;;
76727;SDS011;65652;53.132;18.026;2023-07-16T12:46:01;3.90;;;1.80;;
76727;SDS011;65652;53.132;18.026;2023-07-16T12:50:55;4.80;;;1.90;;
76727;SDS011;65652;53.132;18.026;2023-07-16T12:53:22;3.80;;;1.90;;
76727;SDS011;65652;53.132;18.026;2023-07-16T12:55:48;4.00;;;1.90;;
76727;SDS011;65652;53.132;18.026;2023-07-16T12:58:14;4.20;;;1.80;;
76727;SDS011;65652;53.132;18.026;2023-07-16T13:00:41;4.20;;;2.10;;
76727;SDS011;65652;53.132;18.026;2023-07-16T13:03:07;4.20;;;1.80;;
76727;SDS011;65652;53.132;18.026;2023-07-16T13:05:37;3.70;;;1.80;;
76727;SDS011;65652;53.132;18.026;2023-07-16T13:08:04;5.60;;;2.10;;
76727;SDS011;65652;53.132;18.026;2023-07-16T13:10:30;4.50;;;1.90;;
76727;SDS011;65652;53.132;18.026;2023-07-16T13:12:56;3.70;;;1.90;;
76727;SDS011;65652;53.132;18.026;2023-07-16T13:15:23;4.10;;;1.90;;
76727;SDS011;65652;53.132;18.026;2023-07-16T13:17:49;4.10;;;2.10;;
76727;SDS011;65652;53.132;18.026;2023-07-16T13:20:16;3.30;;;1.60;;
76727;SDS011;65652;53.132;18.026;2023-07-16T13:22:43;4.10;;;1.80;;
76727;SDS011;65652;53.132;18.026;2023-07-16T13:25:09;3.90;;;1.80;;
76727;SDS011;65652;53.132;18.026;2023-07-16T13:27:36;4.50;;;1.90;;
76727;SDS011;65652;53.132;18.026;2023-07-16T13:30:02;4.30;;;2.10;;
76727;SDS011;65652;53.132;18.026;2023-07-16T13:32:29;3.90;;;2.00;;
76727;SDS011;65652;53.132;18.026;2023-07-16T13:34:55;3.80;;;1.60;;
76727;SDS011;65652;53.132;18.026;2023-07-16T13:37:21;4.50;;;1.70;;
76727;SDS011;65652;53.132;18.026;2023-07-16T13:39:47;3.90;;;1.80;;
76727;SDS011;65652;53.132;18.026;2023-07-16T13:42:14;5.00;;;1.60;;
76727;SDS011;65652;53.132;18.026;2023-07-16T13:44:40;4.30;;;1.90;;
76727;SDS011;65652;53.132;18.026;2023-07-16T13:47:06;3.70;;;1.50;;
76727;SDS011;65652;53.132;18.026;2023-07-16T13:49:32;3.90;;;2.00;;
76727;SDS011;65652;53.132;18.026;2023-07-16T13:51:58;4.10;;;1.70;;
76727;SDS011;65652;53.132;18.026;2023-07-16T13:54:24;3.90;;;2.00;;
76727;SDS011;65652;53.132;18.026;2023-07-16T13:56:51;3.60;;;1.60;;
76727;SDS011;65652;53.132;18.026;2023-07-16T13:59:17;3.70;;;1.70;;
76727;SDS011;65652;53.132;18.026;2023-07-16T14:01:43;3.40;;;1.70;;
76727;SDS011;65652;53.132;18.026;2023-07-16T14:04:10;4.20;;;1.60;;
76727;SDS011;65652;53.132;18.026;2023-07-16T14:06:36;3.40;;;1.70;;
76727;SDS011;65652;53.132;18.026;2023-07-16T14:09:02;3.80;;;1.60;;
76727;SDS011;65652;53.132;18.026;2023-07-16T14:11:31;3.70;;;1.70;;
76727;SDS011;65652;53.132;18.026;2023-07-16T14:13:57;3.70;;;1.80;;
76727;SDS011;65652;53.132;18.026;2023-07-16T14:16:23;3.30;;;1.70;;
76727;SDS011;65652;53.132;18.026;2023-07-16T14:18:50;3.60;;;1.70;;
76727;SDS011;65652;53.132;18.026;2023-07-16T14:21:18;3.70;;;1.70;;
76727;SDS011;65652;53.132;18.026;2023-07-16T14:23:44;3.80;;;1.80;;
76727;SDS011;65652;53.132;18.026;2023-07-16T14:26:11;3.80;;;1.90;;
76727;SDS011;65652;53.132;18.026;2023-07-16T14:28:38;4.40;;;1.70;;
76727;SDS011;65652;53.132;18.026;2023-07-16T14:31:04;4.50;;;1.90;;
76727;SDS011;65652;53.132;18.026;2023-07-16T14:33:30;3.60;;;1.80;;
76727;SDS011;65652;53.132;18.026;2023-07-16T14:35:57;4.30;;;1.90;;
76727;SDS011;65652;53.132;18.026;2023-07-16T14:38:23;4.50;;;1.90;;
76727;SDS011;65652;53.132;18.026;2023-07-16T14:40:49;4.60;;;1.90;;
76727;SDS011;65652;53.132;18.026;2023-07-16T14:43:18;4.40;;;1.90;;
76727;SDS011;65652;53.132;18.026;2023-07-16T14:45:44;3.50;;;1.60;;
76727;SDS011;65652;53.132;18.026;2023-07-16T14:48:10;4.00;;;1.90;;
76727;SDS011;65652;53.132;18.026;2023-07-16T14:50:37;3.80;;;1.70;;
76727;SDS011;65652;53.132;18.026;2023-07-16T14:53:04;3.80;;;1.60;;
76727;SDS011;65652;53.132;18.026;2023-07-16T14:55:31;4.00;;;1.80;;
76727;SDS011;65652;53.132;18.026;2023-07-16T14:57:57;3.40;;;1.80;;
76727;SDS011;65652;53.132;18.026;2023-07-16T15:00:23;4.10;;;1.90;;
76727;SDS011;65652;53.132;18.026;2023-07-16T15:02:50;4.00;;;2.00;;
76727;SDS011;65652;53.132;18.026;2023-07-16T15:05:16;3.60;;;1.80;;
76727;SDS011;65652;53.132;18.026;2023-07-16T15:07:42;4.30;;;1.90;;
76727;SDS011;65652;53.132;18.026;2023-07-16T15:10:08;3.70;;;2.00;;
76727;SDS011;65652;53.132;18.026;2023-07-16T15:12:35;4.20;;;1.90;;
76727;SDS011;65652;53.132;18.026;2023-07-16T15:15:01;4.60;;;1.90;;
76727;SDS011;65652;53.132;18.026;2023-07-16T15:17:28;4.10;;;2.20;;
76727;SDS011;65652;53.132;18.026;2023-07-16T15:19:54;4.00;;;1.90;;
76727;SDS011;65652;53.132;18.026;2023-07-16T15:22:20;4.30;;;1.80;;
76727;SDS011;65652;53.132;18.026;2023-07-16T15:24:47;3.60;;;1.70;;
76727;SDS011;65652;53.132;18.026;2023-07-16T15:27:13;4.00;;;1.80;;
76727;SDS011;65652;53.132;18.026;2023-07-16T15:29:39;4.30;;;2.00;;
76727;SDS011;65652;53.132;18.026;2023-07-16T15:32:06;4.30;;;1.90;;
76727;SDS011;65652;53.132;18.026;2023-07-16T15:34:32;3.80;;;1.70;;
76727;SDS011;65652;53.132;18.026;2023-07-16T15:36:58;4.50;;;1.80;;
76727;SDS011;65652;53.132;18.026;2023-07-16T15:39:24;4.00;;;1.90;;
76727;SDS011;65652;53.132;18.026;2023-07-16T15:41:51;3.90;;;1.50;;
76727;SDS011;65652;53.132;18.026;2023-07-16T15:44:17;4.10;;;1.70;;
76727;SDS011;65652;53.132;18.026;2023-07-16T15:46:43;3.90;;;1.80;;
76727;SDS011;65652;53.132;18.026;2023-07-16T15:49:09;3.90;;;1.60;;
76727;SDS011;65652;53.132;18.026;2023-07-16T15:51:36;3.40;;;1.50;;
76727;SDS011;65652;53.132;18.026;2023-07-16T15:54:06;3.80;;;1.80;;
76727;SDS011;65652;53.132;18.026;2023-07-16T15:56:32;4.00;;;1.50;;
76727;SDS011;65652;53.132;18.026;2023-07-16T15:58:59;3.70;;;1.60;;
76727;SDS011;65652;53.132;18.026;2023-07-16T16:01:26;4.00;;;1.80;;
76727;SDS011;65652;53.132;18.026;2023-07-16T16:03:52;5.20;;;1.70;;
76727;SDS011;65652;53.132;18.026;2023-07-16T16:06:19;3.90;;;1.90;;
76727;SDS011;65652;53.132;18.026;2023-07-16T16:08:45;3.80;;;1.90;;
76727;SDS011;65652;53.132;18.026;2023-07-16T16:11:11;3.40;;;1.50;;
76727;SDS011;65652;53.132;18.026;2023-07-16T16:13:38;3.90;;;2.00;;
76727;SDS011;65652;53.132;18.026;2023-07-16T16:16:04;4.30;;;1.50;;
76727;SDS011;65652;53.132;18.026;2023-07-16T16:18:30;3.60;;;1.50;;
76727;SDS011;65652;53.132;18.026;2023-07-16T16:20:57;3.70;;;1.70;;
76727;SDS011;65652;53.132;18.026;2023-07-16T16:23:23;3.90;;;1.70;;
76727;SDS011;65652;53.132;18.026;2023-07-16T16:25:49;3.50;;;1.70;;
76727;SDS011;65652;53.132;18.026;2023-07-16T16:28:15;3.30;;;1.50;;
76727;SDS011;65652;53.132;18.026;2023-07-16T16:30:41;3.70;;;1.70;;
76727;SDS011;65652;53.132;18.026;2023-07-16T16:33:08;3.70;;;1.50;;
76727;SDS011;65652;53.132;18.026;2023-07-16T16:35:36;3.50;;;1.60;;
76727;SDS011;65652;53.132;18.026;2023-07-16T16:38:03;3.50;;;1.60;;
76727;SDS011;65652;53.132;18.026;2023-07-16T16:40:33;3.90;;;1.70;;
76727;SDS011;65652;53.132;18.026;2023-07-16T16:43:00;3.90;;;1.70;;
76727;SDS011;65652;53.132;18.026;2023-07-16T16:45:26;3.50;;;1.50;;
76727;SDS011;65652;53.132;18.026;2023-07-16T16:47:52;4.20;;;1.50;;
76727;SDS011;65652;53.132;18.026;2023-07-16T16:50:19;3.90;;;1.70;;
76727;SDS011;65652;53.132;18.026;2023-07-16T16:52:45;3.70;;;1.50;;
76727;SDS011;65652;53.132;18.026;2023-07-16T16:55:11;5.40;;;1.60;;
76727;SDS011;65652;53.132;18.026;2023-07-16T16:57:38;3.90;;;1.70;;
76727;SDS011;65652;53.132;18.026;2023-07-16T17:00:04;3.50;;;1.60;;
76727;SDS011;65652;53.132;18.026;2023-07-16T17:02:31;4.40;;;1.60;;
76727;SDS011;65652;53.132;18.026;2023-07-16T17:04:58;3.60;;;1.60;;
76727;SDS011;65652;53.132;18.026;2023-07-16T17:07:25;5.00;;;1.90;;
76727;SDS011;65652;53.132;18.026;2023-07-16T17:09:51;4.30;;;1.70;;
76727;SDS011;65652;53.132;18.026;2023-07-16T17:12:17;4.40;;;1.60;;
76727;SDS011;65652;53.132;18.026;2023-07-16T17:14:43;3.70;;;1.60;;
76727;SDS011;65652;53.132;18.026;2023-07-16T17:17:11;4.10;;;1.50;;
76727;SDS011;65652;53.132;18.026;2023-07-16T17:19:37;4.00;;;1.70;;
76727;SDS011;65652;53.132;18.026;2023-07-16T17:22:07;4.70;;;1.80;;
76727;SDS011;65652;53.132;18.026;2023-07-16T17:24:33;4.50;;;1.40;;
76727;SDS011;65652;53.132;18.026;2023-07-16T17:27:00;4.00;;;1.70;;
76727;SDS011;65652;53.132;18.026;2023-07-16T17:29:26;4.60;;;1.90;;
76727;SDS011;65652;53.132;18.026;2023-07-16T17:31:52;3.90;;;1.90;;
76727;SDS011;65652;53.132;18.026;2023-07-16T17:34:18;6.20;;;1.90;;
76727;SDS011;65652;53.132;18.026;2023-07-16T17:36:44;5.00;;;1.80;;
76727;SDS011;65652;53.132;18.026;2023-07-16T17:39:10;4.00;;;1.80;;
76727;SDS011;65652;53.132;18.026;2023-07-16T17:41:37;4.10;;;1.70;;
76727;SDS011;65652;53.132;18.026;2023-07-16T17:44:03;3.90;;;1.80;;
76727;SDS011;65652;53.132;18.026;2023-07-16T17:46:30;4.90;;;2.00;;
76727;SDS011;65652;53.132;18.026;2023-07-16T17:48:56;3.40;;;1.40;;
76727;SDS011;65652;53.132;18.026;2023-07-16T17:51:24;4.00;;;1.60;;
76727;SDS011;65652;53.132;18.026;2023-07-16T17:53:50;4.00;;;1.50;;
76727;SDS011;65652;53.132;18.026;2023-07-16T17:56:16;4.50;;;2.00;;
76727;SDS011;65652;53.132;18.026;2023-07-16T17:58:42;3.90;;;1.70;;
76727;SDS011;65652;53.132;18.026;2023-07-16T18:01:08;3.50;;;1.50;;
76727;SDS011;65652;53.132;18.026;2023-07-16T18:03:35;4.80;;;1.70;;
76727;SDS011;65652;53.132;18.026;2023-07-16T18:06:01;4.50;;;1.70;;
76727;SDS011;65652;53.132;18.026;2023-07-16T18:08:28;4.60;;;1.80;;
76727;SDS011;65652;53.132;18.026;2023-07-16T18:10:55;4.20;;;1.70;;
76727;SDS011;65652;53.132;18.026;2023-07-16T18:13:22;4.90;;;1.60;;
76727;SDS011;65652;53.132;18.026;2023-07-16T18:15:48;3.70;;;1.80;;
76727;SDS011;65652;53.132;18.026;2023-07-16T18:18:15;4.30;;;1.80;;
76727;SDS011;65652;53.132;18.026;2023-07-16T18:20:41;4.20;;;1.70;;
76727;SDS011;65652;53.132;18.026;2023-07-16T18:23:07;4.60;;;2.10;;
76727;SDS011;65652;53.132;18.026;2023-07-16T18:25:34;3.50;;;1.40;;
76727;SDS011;65652;53.132;18.026;2023-07-16T18:28:00;4.80;;;1.90;;
76727;SDS011;65652;53.132;18.026;2023-07-16T18:30:26;4.40;;;1.70;;
76727;SDS011;65652;53.132;18.026;2023-07-16T18:32:53;3.80;;;1.50;;
76727;SDS011;65652;53.132;18.026;2023-07-16T18:35:19;4.30;;;1.80;;
76727;SDS011;65652;53.132;18.026;2023-07-16T18:37:45;4.70;;;1.90;;
76727;SDS011;65652;53.132;18.026;2023-07-16T18:40:11;4.70;;;1.70;;
76727;SDS011;65652;53.132;18.026;2023-07-16T18:42:38;4.70;;;1.80;;
76727;SDS011;65652;53.132;18.026;2023-07-16T18:45:04;3.90;;;1.70;;
76727;SDS011;65652;53.132;18.026;2023-07-16T18:47:31;4.40;;;1.80;;
76727;SDS011;65652;53.132;18.026;2023-07-16T18:49:58;3.70;;;1.70;;
76727;SDS011;65652;53.132;18.026;2023-07-16T18:52:25;4.60;;;1.90;;
76727;SDS011;65652;53.132;18.026;2023-07-16T18:54:51;4.60;;;1.90;;
76727;SDS011;65652;53.132;18.026;2023-07-16T18:57:18;4.60;;;2.10;;
76727;SDS011;65652;53.132;18.026;2023-07-16T18:59:45;4.50;;;2.10;;
76727;SDS011;65652;53.132;18.026;2023-07-16T19:02:11;4.20;;;1.70;;
76727;SDS011;65652;53.132;18.026;2023-07-16T19:04:37;4.60;;;2.10;;
76727;SDS011;65652;53.132;18.026;2023-07-16T19:07:03;4.70;;;2.00;;
76727;SDS011;65652;53.132;18.026;2023-07-16T19:09:30;4.30;;;2.00;;
76727;SDS011;65652;53.132;18.026;2023-07-16T19:11:56;4.90;;;2.00;;
76727;SDS011;65652;53.132;18.026;2023-07-16T19:14:22;4.00;;;1.80;;
76727;SDS011;65652;53.132;18.026;2023-07-16T19:16:49;5.30;;;2.20;;
76727;SDS011;65652;53.132;18.026;2023-07-16T19:19:15;4.60;;;2.10;;
76727;SDS011;65652;53.132;18.026;2023-07-16T19:21:41;5.30;;;2.10;;
76727;SDS011;65652;53.132;18.026;2023-07-16T19:24:07;7.20;;;1.90;;
76727;SDS011;65652;53.132;18.026;2023-07-16T19:26:34;5.40;;;1.80;;
76727;SDS011;65652;53.132;18.026;2023-07-16T19:29:00;4.10;;;1.90;;
76727;SDS011;65652;53.132;18.026;2023-07-16T19:31:27;4.70;;;1.70;;
76727;SDS011;65652;53.132;18.026;2023-07-16T19:33:54;5.00;;;2.00;;
76727;SDS011;65652;53.132;18.026;2023-07-16T19:36:20;4.50;;;1.80;;
76727;SDS011;65652;53.132;18.026;2023-07-16T19:38:48;5.00;;;2.50;;
76727;SDS011;65652;53.132;18.026;2023-07-16T19:41:14;5.10;;;2.20;;
76727;SDS011;65652;53.132;18.026;2023-07-16T19:43:41;4.90;;;2.10;;
76727;SDS011;65652;53.132;18.026;2023-07-16T19:46:07;4.30;;;2.10;;
76727;SDS011;65652;53.132;18.026;2023-07-16T19:48:33;4.90;;;2.30;;
76727;SDS011;65652;53.132;18.026;2023-07-16T19:51:01;4.90;;;2.30;;
76727;SDS011;65652;53.132;18.026;2023-07-16T19:53:30;5.70;;;2.50;;
76727;SDS011;65652;53.132;18.026;2023-07-16T19:55:56;5.10;;;2.60;;
76727;SDS011;65652;53.132;18.026;2023-07-16T20:00:50;4.70;;;2.10;;